createdAt,value
2018-05-18T00:00:10.778Z,181.80
2018-05-18T00:01:10.726Z,94.60
2018-05-18T00:02:10.797Z,221.50
2018-05-18T00:03:10.659Z,113.70
2018-05-18T00:04:10.625Z,50.70
2018-05-18T00:05:10.640Z,44.20
2018-05-18T00:06:10.536Z,50.10
2018-05-18T00:07:10.572Z,257.50
2018-05-18T00:08:10.499Z,99.20
2018-05-18T00:09:10.416Z,194.20
2018-05-18T00:10:10.424Z,213.10
2018-05-18T00:11:10.474Z,224.90
2018-05-18T00:12:10.365Z,78.30
2018-05-18T00:13:10.260Z,44.10
2018-05-18T00:14:10.218Z,49.70
2018-05-18T00:15:10.239Z,44.00
2018-05-18T00:16:10.136Z,37.20
2018-05-18T00:17:10.125Z,37.20
2018-05-18T00:18:10.084Z,41.40
2018-05-18T00:19:10.069Z,38.50
2018-05-18T00:20:09.988Z,41.00
2018-05-18T00:21:09.969Z,37.70
2018-05-18T00:22:09.899Z,49.40
2018-05-18T00:23:09.865Z,41.20
2018-05-18T00:24:09.844Z,39.10
2018-05-18T00:25:09.786Z,45.30
2018-05-18T00:26:09.816Z,46.60
2018-05-18T00:27:09.721Z,41.20
2018-05-18T00:28:09.659Z,46.30
2018-05-18T00:29:09.635Z,47.70
2018-05-18T00:30:09.591Z,44.70
2018-05-18T00:31:09.556Z,45.00
2018-05-18T00:32:09.540Z,43.10
2018-05-18T00:33:09.571Z,42.80
2018-05-18T00:34:09.440Z,42.90
2018-05-18T00:35:09.525Z,34.80
2018-05-18T00:36:10.179Z,45.90
2018-05-18T00:37:09.313Z,45.20
2018-05-18T00:38:09.282Z,43.10
2018-05-18T00:39:09.221Z,42.40
2018-05-18T00:40:09.210Z,43.40
2018-05-18T00:41:09.152Z,46.60
2018-05-18T00:42:09.124Z,43.40
2018-05-18T00:43:09.087Z,36.60
2018-05-18T00:44:09.084Z,45.20
2018-05-18T00:45:08.995Z,38.70
2018-05-18T00:46:08.987Z,42.50
2018-05-18T00:47:08.989Z,39.40
2018-05-18T00:48:08.904Z,43.40
2018-05-18T00:49:08.867Z,48.10
2018-05-18T00:50:08.819Z,49.40
2018-05-18T00:51:08.872Z,42.50
2018-05-18T00:52:08.723Z,40.90
2018-05-18T00:53:08.722Z,42.00
2018-05-18T00:54:08.671Z,45.20
2018-05-18T00:55:08.617Z,41.90
2018-05-18T00:56:08.585Z,41.40
2018-05-18T00:57:08.563Z,38.10
2018-05-18T00:58:08.571Z,41.90
2018-05-18T00:59:08.535Z,38.30
2018-05-18T01:00:08.460Z,37.20
2018-05-18T01:01:08.475Z,35.20
2018-05-18T01:02:08.361Z,41.40
2018-05-18T01:03:44.285Z,41.20
2018-05-18T01:04:08.280Z,44.10
2018-05-18T01:05:08.212Z,45.90
2018-05-18T01:06:08.179Z,37.00
2018-05-18T01:07:08.167Z,42.90
2018-05-18T01:08:08.175Z,37.50
2018-05-18T01:09:08.070Z,37.60
2018-05-18T01:10:08.033Z,40.50
2018-05-18T01:11:08.004Z,43.10
2018-05-18T01:12:07.961Z,47.70
2018-05-18T01:13:28.986Z,39.30
2018-05-18T01:14:07.892Z,37.80
2018-05-18T01:15:07.840Z,43.20
2018-05-18T01:16:07.802Z,37.50
2018-05-18T01:17:08.696Z,35.80
2018-05-18T01:18:07.720Z,39.30
2018-05-18T01:19:07.780Z,42.10
2018-05-18T01:20:07.645Z,39.00
2018-05-18T01:21:07.605Z,39.00
2018-05-18T01:22:07.576Z,33.60
2018-05-18T01:23:28.553Z,34.30
2018-05-18T01:24:07.556Z,33.20
2018-05-18T01:25:08.193Z,34.70
2018-05-18T01:26:07.520Z,36.00
2018-05-18T01:27:07.421Z,31.90
2018-05-18T01:28:07.377Z,32.20
2018-05-18T01:29:07.300Z,35.80
2018-05-18T01:30:07.271Z,34.30
2018-05-18T01:31:07.245Z,34.50
2018-05-18T01:32:07.215Z,34.00
2018-05-18T01:33:07.154Z,39.60
2018-05-18T01:34:07.103Z,35.50
2018-05-18T01:35:07.094Z,38.00
2018-05-18T01:36:07.025Z,41.90
2018-05-18T01:37:07.013Z,32.60
2018-05-18T01:38:06.990Z,36.50
2018-05-18T01:39:06.942Z,32.90
2018-05-18T01:40:06.879Z,34.70
2018-05-18T01:41:06.852Z,34.30
2018-05-18T01:42:06.801Z,37.30
2018-05-18T01:43:06.779Z,33.90
2018-05-18T01:44:06.742Z,33.90
2018-05-18T01:45:06.693Z,33.30
2018-05-18T01:46:06.742Z,32.00
2018-05-18T01:47:06.627Z,38.10
2018-05-18T01:48:06.622Z,31.30
2018-05-18T01:49:07.207Z,34.10
2018-05-18T01:50:06.496Z,32.30
2018-05-18T01:51:06.471Z,32.30
2018-05-18T01:52:06.426Z,31.40
2018-05-18T01:53:06.395Z,34.10
2018-05-18T01:54:06.366Z,38.20
2018-05-18T01:55:06.332Z,33.70
2018-05-18T01:56:06.286Z,27.70
2018-05-18T01:57:06.239Z,31.80
2018-05-18T01:58:06.215Z,37.10
2018-05-18T01:59:06.156Z,32.60
2018-05-18T02:00:06.185Z,35.90
2018-05-18T02:01:06.081Z,35.80
2018-05-18T02:02:06.066Z,34.70
2018-05-18T02:03:06.007Z,33.90
2018-05-18T02:04:06.030Z,38.30
2018-05-18T02:05:05.941Z,30.00
2018-05-18T02:06:05.893Z,31.10
2018-05-18T02:07:05.969Z,32.90
2018-05-18T02:08:05.826Z,26.40
2018-05-18T02:09:05.839Z,26.20
2018-05-18T02:10:05.764Z,28.80
2018-05-18T02:11:06.200Z,28.60
2018-05-18T02:12:05.723Z,28.20
2018-05-18T02:13:05.639Z,32.40
2018-05-18T02:14:05.651Z,32.30
2018-05-18T02:15:05.605Z,29.40
2018-05-18T02:16:05.542Z,31.80
2018-05-18T02:17:05.571Z,30.50
2018-05-18T02:18:05.444Z,31.10
2018-05-18T02:19:05.419Z,29.50
2018-05-18T02:20:05.424Z,29.90
2018-05-18T02:21:05.371Z,28.10
2018-05-18T02:22:05.317Z,28.40
2018-05-18T02:23:05.246Z,29.80
2018-05-18T02:24:05.221Z,29.80
2018-05-18T02:25:05.250Z,25.70
2018-05-18T02:26:05.155Z,28.90
2018-05-18T02:27:05.187Z,28.80
2018-05-18T02:28:05.110Z,26.60
2018-05-18T02:29:05.047Z,27.10
2018-05-18T02:30:05.063Z,25.50
2018-05-18T02:31:04.957Z,25.20
2018-05-18T02:32:04.925Z,26.50
2018-05-18T02:33:04.889Z,24.00
2018-05-18T02:34:04.865Z,27.30
2018-05-18T02:35:04.814Z,24.90
2018-05-18T02:36:04.923Z,26.00
2018-05-18T02:37:04.742Z,29.00
2018-05-18T02:38:04.714Z,31.50
2018-05-18T02:39:04.672Z,29.10
2018-05-18T02:40:04.647Z,27.40
2018-05-18T02:41:04.593Z,29.60
2018-05-18T02:42:04.552Z,33.20
2018-05-18T02:43:04.512Z,29.20
2018-05-18T02:44:04.485Z,27.60
2018-05-18T02:45:04.445Z,27.80
2018-05-18T02:46:04.406Z,28.30
2018-05-18T02:47:04.357Z,27.30
2018-05-18T02:48:04.339Z,29.20
2018-05-18T02:49:04.311Z,25.00
2018-05-18T02:50:04.262Z,23.10
2018-05-18T02:51:04.219Z,26.00
2018-05-18T02:52:04.291Z,26.10
2018-05-18T02:53:04.134Z,25.70
2018-05-18T02:54:04.102Z,25.10
2018-05-18T02:55:04.068Z,26.60
2018-05-18T02:56:04.026Z,29.20
2018-05-18T02:57:03.999Z,26.10
2018-05-18T02:58:03.967Z,27.10
2018-05-18T02:59:03.901Z,28.50
2018-05-18T03:00:03.935Z,29.00
2018-05-18T03:01:03.833Z,30.00
2018-05-18T03:02:03.800Z,31.30
2018-05-18T03:03:03.769Z,27.40
2018-05-18T03:04:03.722Z,27.70
2018-05-18T03:05:03.690Z,24.20
2018-05-18T03:06:03.659Z,24.50
2018-05-18T03:07:03.771Z,30.60
2018-05-18T03:08:03.565Z,26.10
2018-05-18T03:09:03.544Z,29.00
2018-05-18T03:10:03.553Z,26.50
2018-05-18T03:11:03.468Z,25.70
2018-05-18T03:12:03.444Z,25.30
2018-05-18T03:13:03.403Z,27.30
2018-05-18T03:14:03.422Z,29.30
2018-05-18T03:15:03.311Z,22.70
2018-05-18T03:16:03.269Z,27.60
2018-05-18T03:17:03.238Z,24.40
2018-05-18T03:18:03.225Z,26.10
2018-05-18T03:19:03.214Z,28.00
2018-05-18T03:20:03.162Z,28.20
2018-05-18T03:21:03.123Z,25.80
2018-05-18T03:22:03.060Z,24.70
2018-05-18T03:23:03.023Z,26.10
2018-05-18T03:24:02.993Z,20.20
2018-05-18T03:25:02.975Z,23.10
2018-05-18T03:26:02.947Z,26.10
2018-05-18T03:27:02.887Z,28.70
2018-05-18T03:28:02.924Z,27.90
2018-05-18T03:29:02.800Z,26.90
2018-05-18T03:30:02.766Z,23.90
2018-05-18T03:31:02.716Z,23.30
2018-05-18T03:32:02.741Z,26.00
2018-05-18T03:33:02.646Z,29.50
2018-05-18T03:34:02.604Z,27.50
2018-05-18T03:35:02.571Z,21.90
2018-05-18T03:36:02.543Z,28.00
2018-05-18T03:37:02.538Z,22.50
2018-05-18T03:38:02.501Z,25.20
2018-05-18T03:39:02.412Z,26.20
2018-05-18T03:40:02.413Z,25.30
2018-05-18T03:41:02.371Z,24.00
2018-05-18T03:42:02.334Z,22.80
2018-05-18T03:43:02.287Z,22.90
2018-05-18T03:44:02.242Z,29.00
2018-05-18T03:45:02.250Z,26.70
2018-05-18T03:46:02.172Z,26.60
2018-05-18T03:47:02.145Z,23.60
2018-05-18T03:48:02.084Z,23.60
2018-05-18T03:49:02.053Z,22.60
2018-05-18T03:50:02.023Z,27.00
2018-05-18T03:51:01.975Z,25.40
2018-05-18T03:52:02.042Z,30.30
2018-05-18T03:53:01.912Z,24.60
2018-05-18T03:54:01.885Z,27.00
2018-05-18T03:55:01.836Z,24.20
2018-05-18T03:56:01.811Z,23.30
2018-05-18T03:57:01.765Z,21.50
2018-05-18T03:58:01.709Z,23.40
2018-05-18T03:59:01.670Z,25.30
2018-05-18T04:00:01.647Z,22.70
2018-05-18T04:01:01.617Z,21.80
2018-05-18T04:02:01.569Z,21.80
2018-05-18T04:03:01.534Z,24.00
2018-05-18T04:04:01.528Z,22.80
2018-05-18T04:05:01.481Z,22.40
2018-05-18T04:06:01.465Z,21.50
2018-05-18T04:07:01.417Z,23.40
2018-05-18T04:08:01.399Z,23.10
2018-05-18T04:09:01.307Z,25.10
2018-05-18T04:10:01.435Z,20.30
2018-05-18T04:11:01.281Z,22.20
2018-05-18T04:12:01.214Z,23.80
2018-05-18T04:13:01.185Z,25.10
2018-05-18T04:14:01.147Z,21.90
2018-05-18T04:15:01.122Z,22.90
2018-05-18T04:16:01.097Z,20.90
2018-05-18T04:17:00.986Z,20.50
2018-05-18T04:18:01.000Z,19.50
2018-05-18T04:19:01.055Z,23.30
2018-05-18T04:20:00.921Z,21.70
2018-05-18T04:21:00.879Z,22.60
2018-05-18T04:22:00.817Z,23.50
2018-05-18T04:23:00.816Z,21.10
2018-05-18T04:24:00.740Z,19.50
2018-05-18T04:25:00.700Z,20.20
2018-05-18T04:26:00.654Z,20.00
2018-05-18T04:27:00.703Z,20.10
2018-05-18T04:28:00.627Z,22.50
2018-05-18T04:29:00.571Z,21.00
2018-05-18T04:30:00.578Z,23.30
2018-05-18T04:31:00.510Z,19.40
2018-05-18T04:32:00.477Z,23.80
2018-05-18T04:33:00.417Z,22.80
2018-05-18T04:34:00.370Z,22.00
2018-05-18T04:35:00.371Z,19.60
2018-05-18T04:36:00.394Z,19.70
2018-05-18T04:37:00.293Z,20.10
2018-05-18T04:38:00.243Z,20.00
2018-05-18T04:39:00.190Z,21.70
2018-05-18T04:40:00.189Z,20.40
2018-05-18T04:41:00.135Z,22.50
2018-05-18T04:42:00.145Z,24.90
2018-05-18T04:43:00.044Z,20.30
2018-05-18T04:44:00.048Z,19.00
2018-05-18T04:45:00.030Z,19.00
2018-05-18T04:45:59.959Z,21.20
2018-05-18T04:46:59.914Z,23.80
2018-05-18T04:47:59.850Z,22.40
2018-05-18T04:48:59.851Z,22.80
2018-05-18T04:49:59.893Z,22.10
2018-05-18T04:50:59.768Z,21.60
2018-05-18T04:51:59.728Z,20.30
2018-05-18T04:52:59.680Z,18.30
2018-05-18T04:53:59.667Z,23.90
2018-05-18T04:54:59.629Z,17.70
2018-05-18T04:55:59.603Z,18.90
2018-05-18T04:56:59.530Z,20.70
2018-05-18T04:57:59.487Z,17.80
2018-05-18T04:58:59.480Z,19.40
2018-05-18T04:59:59.423Z,20.50
2018-05-18T05:00:59.383Z,21.60
2018-05-18T05:01:59.353Z,20.60
2018-05-18T05:02:59.296Z,20.00
2018-05-18T05:03:59.277Z,18.60
2018-05-18T05:04:59.272Z,18.00
2018-05-18T05:05:59.216Z,16.60
2018-05-18T05:06:59.167Z,18.40
2018-05-18T05:07:59.134Z,18.10
2018-05-18T05:08:59.079Z,19.10
2018-05-18T05:09:59.057Z,18.00
2018-05-18T05:10:59.033Z,17.60
2018-05-18T05:11:59.017Z,18.20
2018-05-18T05:12:59.760Z,19.60
2018-05-18T05:13:58.958Z,20.50
2018-05-18T05:14:58.870Z,19.00
2018-05-18T05:15:58.828Z,18.00
2018-05-18T05:16:58.800Z,16.90
2018-05-18T05:17:58.799Z,17.60
2018-05-18T05:18:58.734Z,19.40
2018-05-18T05:19:59.244Z,17.70
2018-05-18T05:20:58.654Z,18.40
2018-05-18T05:21:58.617Z,15.90
2018-05-18T05:22:58.588Z,20.30
2018-05-18T05:23:58.528Z,17.70
2018-05-18T05:24:58.490Z,17.30
2018-05-18T05:25:58.448Z,18.60
2018-05-18T05:26:58.427Z,16.80
2018-05-18T05:27:58.430Z,19.40
2018-05-18T05:28:58.361Z,16.80
2018-05-18T05:29:58.300Z,17.00
2018-05-18T05:30:58.276Z,18.00
2018-05-18T05:31:58.285Z,17.60
2018-05-18T05:32:58.219Z,17.80
2018-05-18T05:33:58.190Z,17.90
2018-05-18T05:34:58.144Z,15.90
2018-05-18T05:35:58.078Z,16.90
2018-05-18T05:36:58.076Z,18.20
2018-05-18T05:37:58.019Z,18.50
2018-05-18T05:38:57.991Z,17.40
2018-05-18T05:39:57.927Z,16.00
2018-05-18T05:40:57.900Z,17.70
2018-05-18T05:41:57.876Z,17.20
2018-05-18T05:42:57.830Z,21.30
2018-05-18T05:43:57.787Z,14.50
2018-05-18T05:44:57.759Z,16.00
2018-05-18T05:45:57.725Z,16.10
2018-05-18T05:46:57.748Z,15.20
2018-05-18T05:47:57.654Z,18.00
2018-05-18T05:48:57.632Z,15.30
2018-05-18T05:49:57.564Z,16.70
2018-05-18T05:50:57.521Z,18.00
2018-05-18T05:51:57.502Z,16.60
2018-05-18T05:52:57.557Z,20.00
2018-05-18T05:53:57.437Z,16.40
2018-05-18T05:54:57.395Z,17.20
2018-05-18T05:55:57.373Z,15.50
2018-05-18T05:56:57.324Z,15.70
2018-05-18T05:57:57.295Z,12.50
2018-05-18T05:58:57.261Z,15.50
2018-05-18T05:59:57.218Z,14.50
2018-05-18T06:00:57.268Z,16.90
2018-05-18T06:01:57.145Z,15.70
2018-05-18T06:02:57.757Z,13.50
2018-05-18T06:03:57.067Z,15.00
2018-05-18T06:04:57.059Z,17.40
2018-05-18T06:05:57.082Z,17.50
2018-05-18T06:06:56.966Z,18.10
2018-05-18T06:07:56.932Z,15.60
2018-05-18T06:08:56.888Z,16.00
2018-05-18T06:09:56.861Z,16.40
2018-05-18T06:10:56.810Z,17.50
2018-05-18T06:11:56.769Z,16.60
2018-05-18T06:12:56.760Z,16.00
2018-05-18T06:13:56.695Z,20.80
2018-05-18T06:14:56.671Z,16.20
2018-05-18T06:15:56.635Z,16.90
2018-05-18T06:16:56.586Z,15.60
2018-05-18T06:17:56.561Z,14.60
2018-05-18T06:18:56.526Z,18.50
2018-05-18T06:19:56.505Z,16.20
2018-05-18T06:20:56.482Z,16.30
2018-05-18T06:21:56.398Z,18.50
2018-05-18T06:22:56.363Z,16.40
2018-05-18T06:23:56.340Z,17.70
2018-05-18T06:24:56.323Z,16.20
2018-05-18T06:25:56.305Z,15.30
2018-05-18T06:26:56.237Z,15.90
2018-05-18T06:27:56.213Z,17.70
2018-05-18T06:28:56.141Z,17.60
2018-05-18T06:29:56.115Z,18.10
2018-05-18T06:30:56.067Z,15.00
2018-05-18T06:31:56.031Z,18.50
2018-05-18T06:32:56.030Z,15.90
2018-05-18T06:33:55.971Z,15.70
2018-05-18T06:34:55.998Z,16.90
2018-05-18T06:35:55.938Z,19.60
2018-05-18T06:36:55.848Z,18.90
2018-05-18T06:37:55.827Z,18.50
2018-05-18T06:38:55.826Z,15.40
2018-05-18T06:39:55.749Z,15.80
2018-05-18T06:40:55.761Z,18.00
2018-05-18T06:41:55.761Z,19.30
2018-05-18T06:42:55.634Z,16.50
2018-05-18T06:43:55.595Z,16.10
2018-05-18T06:44:55.555Z,16.20
2018-05-18T06:45:55.525Z,19.60
2018-05-18T06:46:55.633Z,18.00
2018-05-18T06:47:55.464Z,16.70
2018-05-18T06:48:55.413Z,15.80
2018-05-18T06:49:55.445Z,21.70
2018-05-18T06:50:55.350Z,18.10
2018-05-18T06:51:55.309Z,17.50
2018-05-18T06:52:55.290Z,16.10
2018-05-18T06:53:55.237Z,15.70
2018-05-18T06:54:55.224Z,15.50
2018-05-18T06:55:55.205Z,17.40
2018-05-18T06:56:55.147Z,16.20
2018-05-18T06:57:55.099Z,15.70
2018-05-18T06:58:55.067Z,15.80
2018-05-18T06:59:55.026Z,16.70
2018-05-18T07:00:55.011Z,20.10
2018-05-18T07:01:54.951Z,17.40
2018-05-18T07:02:54.913Z,17.20
2018-05-18T07:03:54.866Z,19.90
2018-05-18T07:04:54.843Z,18.10
2018-05-18T07:05:54.827Z,21.20
2018-05-18T07:06:54.749Z,16.80
2018-05-18T07:07:54.717Z,20.30
2018-05-18T07:08:54.703Z,18.00
2018-05-18T07:09:54.667Z,16.00
2018-05-18T07:10:54.628Z,16.30
2018-05-18T07:11:54.573Z,18.60
2018-05-18T07:12:54.541Z,19.30
2018-05-18T07:13:54.497Z,20.30
2018-05-18T07:14:54.472Z,18.40
2018-05-18T07:15:54.464Z,16.80
2018-05-18T07:16:54.402Z,19.00
2018-05-18T07:17:54.378Z,20.10
2018-05-18T07:18:55.280Z,18.60
2018-05-18T07:19:54.276Z,19.00
2018-05-18T07:20:54.263Z,16.20
2018-05-18T07:21:54.278Z,16.60
2018-05-18T07:22:54.259Z,16.40
2018-05-18T07:23:54.158Z,17.00
2018-05-18T07:24:54.134Z,17.50
2018-05-18T07:25:54.103Z,14.90
2018-05-18T07:26:54.021Z,16.20
2018-05-18T07:27:54.013Z,19.80
2018-05-18T07:28:53.961Z,16.00
2018-05-18T07:29:54.091Z,15.30
2018-05-18T07:30:53.913Z,16.90
2018-05-18T07:31:53.857Z,15.70
2018-05-18T07:32:53.824Z,15.10
2018-05-18T07:33:53.874Z,18.50
2018-05-18T07:34:53.788Z,17.50
2018-05-18T07:35:53.728Z,17.40
2018-05-18T07:36:53.727Z,15.20
2018-05-18T07:37:53.632Z,15.10
2018-05-18T07:38:53.603Z,15.00
2018-05-18T07:39:53.587Z,17.10
2018-05-18T07:40:53.554Z,16.70
2018-05-18T07:41:53.524Z,16.80
2018-05-18T07:42:53.487Z,18.90
2018-05-18T07:43:53.534Z,15.10
2018-05-18T07:44:53.433Z,18.40
2018-05-18T07:45:53.373Z,18.60
2018-05-18T07:46:53.355Z,17.30
2018-05-18T07:47:53.304Z,17.60
2018-05-18T07:48:53.266Z,19.80
2018-05-18T07:49:53.293Z,16.90
2018-05-18T07:50:53.186Z,17.10
2018-05-18T07:51:53.168Z,16.70
2018-05-18T07:52:53.165Z,17.60
2018-05-18T07:53:53.086Z,16.60
2018-05-18T07:54:53.072Z,15.80
2018-05-18T07:55:53.038Z,15.60
2018-05-18T07:56:52.994Z,15.80
2018-05-18T07:57:53.806Z,18.30
2018-05-18T07:58:52.909Z,18.60
2018-05-18T07:59:52.872Z,16.60
2018-05-18T08:00:52.834Z,16.10
2018-05-18T08:01:52.813Z,17.10
2018-05-18T08:02:52.746Z,18.80
2018-05-18T08:03:52.730Z,16.00
2018-05-18T08:04:52.672Z,17.40
2018-05-18T08:05:52.721Z,20.90
2018-05-18T08:06:52.600Z,18.80
2018-05-18T08:07:52.576Z,17.20
2018-05-18T08:08:52.556Z,16.70
2018-05-18T08:09:52.494Z,17.50
2018-05-18T08:10:52.473Z,16.40
2018-05-18T08:11:52.415Z,17.70
2018-05-18T08:12:52.417Z,18.70
2018-05-18T08:13:52.373Z,21.50
2018-05-18T08:14:52.319Z,16.60
2018-05-18T08:15:52.393Z,15.60
2018-05-18T08:16:52.244Z,19.50
2018-05-18T08:17:52.203Z,15.10
2018-05-18T08:18:52.203Z,18.40
2018-05-18T08:19:52.143Z,19.80
2018-05-18T08:20:52.122Z,19.00
2018-05-18T08:21:52.077Z,18.60
2018-05-18T08:22:52.090Z,16.20
2018-05-18T08:23:51.997Z,16.50
2018-05-18T08:24:52.012Z,17.50
2018-05-18T08:25:51.939Z,17.50
2018-05-18T08:26:51.883Z,19.00
2018-05-18T08:27:51.865Z,20.50
2018-05-18T08:28:51.816Z,15.60
2018-05-18T08:29:51.786Z,18.10
2018-05-18T08:30:51.737Z,18.60
2018-05-18T08:31:51.723Z,18.00
2018-05-18T08:32:51.679Z,18.20
2018-05-18T08:33:51.645Z,16.60
2018-05-18T08:34:51.654Z,19.30
2018-05-18T08:35:51.611Z,18.00
2018-05-18T08:36:51.573Z,16.10
2018-05-18T08:37:51.517Z,19.80
2018-05-18T08:38:51.547Z,17.90
2018-05-18T08:39:51.460Z,18.80
2018-05-18T08:40:51.409Z,15.70
2018-05-18T08:41:51.387Z,18.40
2018-05-18T08:42:51.328Z,14.90
2018-05-18T08:43:51.300Z,19.20
2018-05-18T08:44:51.294Z,15.40
2018-05-18T08:45:51.240Z,17.40
2018-05-18T08:46:51.304Z,17.50
2018-05-18T08:47:51.205Z,17.10
2018-05-18T08:48:51.134Z,17.20
2018-05-18T08:49:51.115Z,16.20
2018-05-18T08:50:51.067Z,16.10
2018-05-18T08:51:51.048Z,17.20
2018-05-18T08:52:51.015Z,17.60
2018-05-18T08:53:50.945Z,20.90
2018-05-18T08:54:50.891Z,15.00
2018-05-18T08:55:50.954Z,15.10
2018-05-18T08:56:50.840Z,16.10
2018-05-18T08:57:50.800Z,16.30
2018-05-18T08:58:50.778Z,19.10
2018-05-18T08:59:50.816Z,15.00
2018-05-18T09:00:50.698Z,15.60
2018-05-18T09:01:50.669Z,17.50
2018-05-18T09:02:50.628Z,15.10
2018-05-18T09:03:50.584Z,13.00
2018-05-18T09:04:50.559Z,15.80
2018-05-18T09:05:50.544Z,19.70
2018-05-18T09:06:50.486Z,15.00
2018-05-18T09:07:50.451Z,16.80
2018-05-18T09:08:50.492Z,16.40
2018-05-18T09:09:50.452Z,14.10
2018-05-18T09:10:50.353Z,15.70
2018-05-18T09:11:50.320Z,17.40
2018-05-18T09:12:50.331Z,14.70
2018-05-18T09:13:50.242Z,14.00
2018-05-18T09:14:50.217Z,15.30
2018-05-18T09:15:50.204Z,16.40
2018-05-18T09:16:50.152Z,16.40
2018-05-18T09:17:50.230Z,13.50
2018-05-18T09:18:50.131Z,14.10
2018-05-18T09:19:50.027Z,15.10
2018-05-18T09:20:50.006Z,13.20
2018-05-18T09:21:49.967Z,12.50
2018-05-18T09:22:49.931Z,13.30
2018-05-18T09:23:49.910Z,13.70
2018-05-18T09:24:49.896Z,15.70
2018-05-18T09:25:49.835Z,13.80
2018-05-18T09:26:49.830Z,13.80
2018-05-18T09:27:49.755Z,12.90
2018-05-18T09:28:49.749Z,13.20
2018-05-18T09:29:50.341Z,12.90
2018-05-18T09:30:49.671Z,14.80
2018-05-18T09:31:49.626Z,13.70
2018-05-18T09:32:49.599Z,13.00
2018-05-18T09:33:49.560Z,14.50
2018-05-18T09:34:49.520Z,16.10
2018-05-18T09:35:49.498Z,13.40
2018-05-18T09:36:49.487Z,13.20
2018-05-18T09:37:49.496Z,14.00
2018-05-18T09:38:49.386Z,11.80
2018-05-18T09:39:49.387Z,15.00
2018-05-18T09:40:49.316Z,13.90
2018-05-18T09:41:49.285Z,15.30
2018-05-18T09:42:49.253Z,12.30
2018-05-18T09:43:49.293Z,12.10
2018-05-18T09:44:49.166Z,13.70
2018-05-18T09:45:49.155Z,15.50
2018-05-18T09:46:49.120Z,13.00
2018-05-18T09:47:49.083Z,11.90
2018-05-18T09:48:49.042Z,11.80
2018-05-18T09:49:49.010Z,12.30
2018-05-18T09:50:49.015Z,13.60
2018-05-18T09:51:48.956Z,12.70
2018-05-18T09:52:48.908Z,14.80
2018-05-18T09:53:48.884Z,15.90
2018-05-18T09:54:48.956Z,14.30
2018-05-18T09:55:48.819Z,13.30
2018-05-18T09:56:48.789Z,11.40
2018-05-18T09:57:48.750Z,13.30
2018-05-18T09:58:48.707Z,12.60
2018-05-18T09:59:48.734Z,12.30
2018-05-18T10:00:48.662Z,13.60
2018-05-18T10:01:48.627Z,11.40
2018-05-18T10:02:48.592Z,13.90
2018-05-18T10:03:48.565Z,14.90
2018-05-18T10:04:48.551Z,14.00
2018-05-18T10:05:48.499Z,14.70
2018-05-18T10:06:48.519Z,14.70
2018-05-18T10:07:48.426Z,15.20
2018-05-18T10:08:48.375Z,13.00
2018-05-18T10:09:48.354Z,11.70
2018-05-18T10:10:48.320Z,13.60
2018-05-18T10:11:48.314Z,10.20
2018-05-18T10:12:48.261Z,11.60
2018-05-18T10:13:48.212Z,13.60
2018-05-18T10:14:48.174Z,12.10
2018-05-18T10:15:48.216Z,12.60
2018-05-18T10:16:48.113Z,12.00
2018-05-18T10:17:48.105Z,12.40
2018-05-18T10:18:48.064Z,12.30
2018-05-18T10:19:48.018Z,12.10
2018-05-18T10:20:47.994Z,12.40
2018-05-18T10:21:47.974Z,11.70
2018-05-18T10:22:47.917Z,11.80
2018-05-18T10:23:47.889Z,16.70
2018-05-18T10:24:47.870Z,11.80
2018-05-18T10:25:47.850Z,12.40
2018-05-18T10:26:47.775Z,13.50
2018-05-18T10:27:47.790Z,15.20
2018-05-18T10:28:47.787Z,13.90
2018-05-18T10:29:47.697Z,13.80
2018-05-18T10:30:47.675Z,11.50
2018-05-18T10:31:47.624Z,13.70
2018-05-18T10:32:47.580Z,13.20
2018-05-18T10:33:47.638Z,13.40
2018-05-18T10:34:47.515Z,11.50
2018-05-18T10:35:47.510Z,12.60
2018-05-18T10:36:47.454Z,13.10
2018-05-18T10:37:47.438Z,12.90
2018-05-18T10:38:47.421Z,17.50
2018-05-18T10:39:47.373Z,13.00
2018-05-18T10:40:47.374Z,13.50
2018-05-18T10:41:47.310Z,11.10
2018-05-18T10:42:47.265Z,10.40
2018-05-18T10:43:47.272Z,11.60
2018-05-18T10:44:47.194Z,11.80
2018-05-18T10:45:47.170Z,13.80
2018-05-18T10:46:47.203Z,11.80
2018-05-18T10:47:47.104Z,11.80
2018-05-18T10:48:47.113Z,12.10
2018-05-18T10:49:47.026Z,13.10
2018-05-18T10:50:47.012Z,12.70
2018-05-18T10:51:46.991Z,12.00
2018-05-18T10:52:46.947Z,13.30
2018-05-18T10:53:46.930Z,13.10
2018-05-18T10:54:46.895Z,13.60
2018-05-18T10:55:46.872Z,11.80
2018-05-18T10:56:46.815Z,12.40
2018-05-18T10:57:46.772Z,12.20
2018-05-18T10:58:46.733Z,12.80
2018-05-18T10:59:46.717Z,12.10
2018-05-18T11:00:46.727Z,14.50
2018-05-18T11:01:46.668Z,11.10
2018-05-18T11:02:46.643Z,11.80
2018-05-18T11:03:46.658Z,12.30
2018-05-18T11:04:46.568Z,12.10
2018-05-18T11:05:46.507Z,12.50
2018-05-18T11:06:46.502Z,10.60
2018-05-18T11:07:46.472Z,14.40
2018-05-18T11:08:46.466Z,13.00
2018-05-18T11:09:46.400Z,15.10
2018-05-18T11:10:46.398Z,11.10
2018-05-18T11:11:46.346Z,12.30
2018-05-18T11:12:46.335Z,11.20
2018-05-18T11:13:46.277Z,11.00
2018-05-18T11:14:46.880Z,11.20
2018-05-18T11:15:46.237Z,14.40
2018-05-18T11:16:46.849Z,11.90
2018-05-18T11:17:46.154Z,14.70
2018-05-18T11:18:46.139Z,11.40
2018-05-18T11:19:46.089Z,11.70
2018-05-18T11:20:46.115Z,12.50
2018-05-18T11:21:46.017Z,11.80
2018-05-18T11:22:46.037Z,14.00
2018-05-18T11:23:45.947Z,12.30
2018-05-18T11:24:45.918Z,12.00
2018-05-18T11:25:45.889Z,14.50
2018-05-18T11:26:45.872Z,11.90
2018-05-18T11:27:45.846Z,10.90
2018-05-18T11:28:45.777Z,11.60
2018-05-18T11:29:45.744Z,13.20
2018-05-18T11:30:45.741Z,11.00
2018-05-18T11:31:46.358Z,11.70
2018-05-18T11:32:45.674Z,11.00
2018-05-18T11:33:45.635Z,10.80
2018-05-18T11:34:45.594Z,13.60
2018-05-18T11:35:45.670Z,10.90
2018-05-18T11:36:45.537Z,9.90
2018-05-18T11:37:45.497Z,13.40
2018-05-18T11:38:45.488Z,11.90
2018-05-18T11:39:45.452Z,11.70
2018-05-18T11:40:45.406Z,12.30
2018-05-18T11:41:45.366Z,14.10
2018-05-18T11:42:45.349Z,11.80
2018-05-18T11:43:45.467Z,14.50
2018-05-18T11:44:45.286Z,11.90
2018-05-18T11:45:45.266Z,12.40
2018-05-18T11:46:45.253Z,12.20
2018-05-18T11:47:45.204Z,13.10
2018-05-18T11:48:45.172Z,11.40
2018-05-18T11:49:45.161Z,11.60
2018-05-18T11:50:45.127Z,11.60
2018-05-18T11:51:45.076Z,13.40
2018-05-18T11:52:45.023Z,15.40
2018-05-18T11:53:44.995Z,12.10
2018-05-18T11:54:45.066Z,14.00
2018-05-18T11:55:44.990Z,12.70
2018-05-18T11:56:44.920Z,11.30
2018-05-18T11:57:44.878Z,12.30
2018-05-18T11:58:44.855Z,12.50
2018-05-18T11:59:44.842Z,11.30
2018-05-18T12:00:44.801Z,14.40
2018-05-18T12:01:44.758Z,12.00
2018-05-18T12:02:44.830Z,12.00
2018-05-18T12:03:44.724Z,12.50
2018-05-18T12:04:44.667Z,13.50
2018-05-18T12:05:44.651Z,10.80
2018-05-18T12:06:44.623Z,11.20
2018-05-18T12:07:44.571Z,11.00
2018-05-18T12:08:44.635Z,11.70
2018-05-18T12:09:44.530Z,14.20
2018-05-18T12:10:44.488Z,12.20
2018-05-18T12:11:44.494Z,12.70
2018-05-18T12:12:44.440Z,13.90
2018-05-18T12:13:44.415Z,11.60
2018-05-18T12:14:44.435Z,13.70
2018-05-18T12:15:44.377Z,14.00
2018-05-18T12:16:44.335Z,14.10
2018-05-18T12:17:44.326Z,17.20
2018-05-18T12:18:44.262Z,13.90
2018-05-18T12:19:44.239Z,14.50
2018-05-18T12:20:44.202Z,15.30
2018-05-18T12:21:44.167Z,13.90
2018-05-18T12:22:44.178Z,12.80
2018-05-18T12:23:44.113Z,12.40
2018-05-18T12:24:44.121Z,14.00
2018-05-18T12:25:44.056Z,14.00
2018-05-18T12:26:44.126Z,13.80
2018-05-18T12:27:44.000Z,13.20
2018-05-18T12:28:43.970Z,14.50
2018-05-18T12:29:43.972Z,13.40
2018-05-18T12:30:43.928Z,15.20
2018-05-18T12:31:43.924Z,13.10
2018-05-18T12:32:43.876Z,13.40
2018-05-18T12:33:43.848Z,12.80
2018-05-18T12:34:43.797Z,14.60
2018-05-18T12:35:43.784Z,13.90
2018-05-18T12:36:43.748Z,12.80
2018-05-18T12:37:43.719Z,15.70
2018-05-18T12:38:43.672Z,12.20
2018-05-18T12:39:43.661Z,18.10
2018-05-18T12:40:43.651Z,13.50
2018-05-18T12:41:43.620Z,12.00
2018-05-18T12:42:43.756Z,17.00
2018-05-18T12:43:43.550Z,15.10
2018-05-18T12:44:43.570Z,17.30
2018-05-18T12:45:43.515Z,14.90
2018-05-18T12:46:43.468Z,15.40
2018-05-18T12:47:43.438Z,16.10
2018-05-18T12:48:43.412Z,12.50
2018-05-18T12:49:43.407Z,14.80
2018-05-18T12:50:43.353Z,15.60
2018-05-18T12:51:43.323Z,13.70